Thursday, April 26, 2018, 5:31 AM EDT
Back to Local

KBGR, Bangor Int'l Airport

Location: Bangor, ME, United States Lat: 44.8
Local Time: 5:31 AM EDT ( 9:31 GMT) Lon: -68.817
Time Zone: US/Eastern Elev: 193 ft

Show me the last for .
Show Decoded

2018-04-26 04:53 METAR KBGR 260853Z 16009G15KT 9SM -RA OVC009 11/10 A2967 RMK AO2 SLP047 P0006
                 60019 T01060100 56024 =
2018-04-26 04:34 METAR KBGR 260834Z 15008KT 8SM -RA OVC009 11/10 A2968 RMK AO2 P0005 T01060100 =
2018-04-26 04:21 METAR KBGR 260821Z 16008KT 7SM -RA OVC011 11/10 A2968 RMK AO2 P0003 T01060100 =
2018-04-26 04:09 METAR KBGR 260809Z 15011KT 6SM -RA BR OVC009 11/10 A2968 RMK AO2 P0001 T01060100
                 =
2018-04-26 03:53 METAR KBGR 260753Z 15010KT 5SM -RA BR OVC011 11/10 A2969 RMK AO2 SLP052 P0007
                 T01060100 =
2018-04-26 02:53 METAR KBGR 260653Z 16013KT 6SM -RA BR OVC011 11/11 A2971 RMK AO2 SLP059 P0006
                 T01110106 =
2018-04-26 02:14 METAR KBGR 260614Z 16009KT 3SM -RA BR BKN009 OVC014 12/11 A2973 RMK AO2 P0002
                 T01170106 =
2018-04-26 02:03 METAR KBGR 260603Z 16011KT 4SM -RA BR BKN010 OVC014 12/11 A2973 RMK AO2 P0001
                 T01170106 =
2018-04-26 01:53 METAR KBGR 260553Z 15010KT 4SM -RA BR BKN008 OVC012 12/11 A2974 RMK AO2 SLP070
                 P0013 60087 T01170111 10122 20111 56040 =
2018-04-26 00:53 METAR KBGR 260453Z 16010G18KT 4SM -RA BR BKN008 OVC014 12/11 A2978 RMK AO2
                 SLP082 P0022 T01220111 401670072 =
2018-04-26 00:44 METAR KBGR 260444Z 15009KT 4SM RA BR BKN008 OVC014 12/11 A2978 RMK AO2 CIG
                 006V011 P0019 T01220111 =
2018-04-25 23:53 METAR KBGR 260353Z 13011KT 3SM RA BR FEW007 OVC014 11/11 A2981 RMK AO2 SLP094
                 P0024 T01110106 =
2018-04-25 23:22 METAR KBGR 260322Z 12009KT 2 1/2SM RA BR FEW007 BKN012 OVC017 11/11 A2983 RMK
                 AO2 P0012 T01110106 =
2018-04-25 23:17 METAR KBGR 260317Z 11009KT 3SM RA BR BKN010 OVC017 11/11 A2984 RMK AO2 P0009
                 T01110106 =
2018-04-25 22:53 METAR KBGR 260253Z 12008KT 4SM -RA BR BKN009 OVC014 11/11 A2986 RMK AO2 SLP110
                 P0019 60028 T01110106 58036 =
2018-04-25 22:30 METAR KBGR 260230Z 13009KT 5SM -RA BR FEW009 OVC014 11/11 A2988 RMK AO2 P0009
                 T01110106 =
2018-04-25 21:53 METAR KBGR 260153Z 15009KT 5SM RA BR OVC009 12/11 A2991 RMK AO2 CIG 007V013
                 SLP129 P0007 T01170106 =
2018-04-25 20:53 METAR KBGR 260053Z 14012KT 6SM -RA BR OVC008 12/11 A2995 RMK AO2 CIG 005V010
                 SLP140 P0002 T01170111 =
2018-04-25 19:53 METAR KBGR 252353Z 14009KT 7SM -RA OVC006 12/11 A2997 RMK AO2 CIG 005V010 SLP147
                 P0007 60016 T01170111 10144 20106 56017 =
2018-04-25 19:00 METAR KBGR 252300Z 13007KT 4SM -RA BR OVC005 11/11 A2998 RMK AO2 CIG 004V008
                 P0000 T01110106 =
2018-04-25 18:53 METAR KBGR 252253Z 14007KT 2 1/2SM -RA BR OVC005 11/11 A2998 RMK AO2 VIS 2V3 CIG
                 004V008 SLP153 P0006 T01110106 =
2018-04-25 18:50 METAR KBGR 252250Z 14008KT 2 1/2SM -RA BR OVC004 11/11 A2999 RMK AO2 P0006 =
2018-04-25 18:36 METAR KBGR 252236Z 10006KT 5SM -RA BR OVC004 11/11 A2999 RMK AO2 P0005 T01060106
                 =
2018-04-25 18:16 METAR KBGR 252216Z 11004KT 2SM -RA BR BKN004 OVC010 11/11 A3000 RMK AO2 P0003
                 T01060106 =
2018-04-25 18:09 METAR KBGR 252209Z 13005KT 2 1/2SM -RA BR OVC010 11/10 A3001 RMK AO2 CIG 004V013
                 P0002 T01060100 =
2018-04-25 17:53 METAR KBGR 252153Z 14007KT 1 3/4SM -RA BR OVC013 11/10 A3001 RMK AO2 RAB06
                 SLP164 P0001 T01110100 =
2018-04-25 17:37 METAR KBGR 252137Z 14008KT 2SM -RA BR OVC012 11/10 A3002 RMK AO2 RAB06 P0000
                 T01110100 =
2018-04-25 16:53 METAR KBGR 252053Z 14009KT 10SM OVC013 12/10 A3004 RMK AO2 RAE48 SLP173 P0001
                 60002 T01170100 56019 =
2018-04-25 16:13 METAR KBGR 252013Z 14010KT 3SM -RA BR BKN012 OVC020 12/11 A3005 RMK AO2 SFC VIS
                 4 P0001 T01170106 =
2018-04-25 15:53 METAR KBGR 251953Z 15008KT 10SM -RA BKN018 OVC026 13/11 A3005 RMK AO2 RAB26
                 SLP176 P0000 T01280106 =
2018-04-25 15:40 METAR KBGR 251940Z 16008KT 10SM -RA SCT018 BKN026 OVC060 13/10 A3005 RMK AO2
                 RAB26 P0000 T01280100 =
2018-04-25 15:33 METAR KBGR 251933Z 18009KT 10SM -RA FEW013 BKN030 OVC060 13/10 A3006 RMK AO2
                 RAB26 P0000 T01280100 =
2018-04-25 15:10 METAR KBGR 251910Z 17010KT 10SM BKN014 BKN030 OVC060 13/11 A3007 RMK AO2
                 T01330106 =
2018-04-25 14:53 METAR KBGR 251853Z 17010KT 10SM FEW010 BKN034 OVC065 13/11 A3008 RMK AO2
                 RAB1756E43 SLP185 P0001 T01280111 =
2018-04-25 14:15 METAR KBGR 251815Z 16011KT 3SM -RA BR BKN022 BKN033 OVC060 12/11 A3010 RMK AO2
                 RAB1756 P0001 T01220106 =
2018-04-25 13:53 METAR KBGR 251753Z 17010KT 10SM FEW032 BKN060 OVC100 14/09 A3010 RMK AO2 SLP191
                 T01440089 10167 20106 58017 =
2018-04-25 12:53 METAR KBGR 251653Z 16013KT 10SM OVC065 14/07 A3012 RMK AO2 SLP200 T01390072 =
2018-04-25 11:53 METAR KBGR 251553Z 18013KT 10SM SCT050 BKN080 OVC200 16/07 A3013 RMK AO2 SLP201
                 BINOVC T01560072 =
2018-04-25 10:53 METAR KBGR 251453Z 16009KT 10SM FEW050 BKN065 OVC200 15/07 A3015 RMK AO2 SLP208
                 BINOVC T01500067 58004 =
2018-04-25 09:53 METAR KBGR 251353Z 17009KT 10SM OVC065 13/06 A3016 RMK AO2 SLP213 T01330056 =
2018-04-25 08:53 METAR KBGR 251253Z 17009KT 10SM SCT060 SCT120 OVC200 12/04 A3016 RMK AO2 SLP213
                 T01220044 =
2018-04-25 07:53 METAR KBGR 251153Z 18008KT 10SM FEW120 OVC200 11/02 A3016 RMK AO2 SLP213
                 T01060022 10106 20072 52003 =
2018-04-25 06:53 METAR KBGR 251053Z 17005KT 10SM BKN180 OVC250 09/02 A3016 RMK AO2 SLP213
                 T00890017 =
2018-04-25 05:53 METAR KBGR 250953Z 18004KT 10SM BKN180 OVC250 07/02 A3015 RMK AO2 SLP209
                 T00720022 =

Support USWX by starting your Amazon purchase here.